Time;durP1;ratioP1;P1;durP2;ratioP2;P2;SDS_P1;SDS_P2;PMS_P1;PMS_P2;Temp;Humidity;BMP_temperature;BMP_pressure;BME280_temperature;BME280_humidity;BME280_pressure;Samples;Min_cycle;Max_cycle;Signal;HPM_P1;HPM_P2
2023/01/14 00:01:12;;;;;;;0.20;0.10;;;;;;;;;;5015796;28;20053;-84
2023/01/14 00:03:38;;;;;;;0.20;0.10;;;;;;;;;;5008143;28;20045;-85
2023/01/14 00:06:07;;;;;;;0.20;0.10;;;;;;;;;;5031739;28;20209;-86
2023/01/14 00:08:42;;;;;;;0.20;0.20;;;;;;;;;;5020650;28;20041;-86
2023/01/14 00:11:12;;;;;;;0.20;0.10;;;;;;;;;;5023120;28;20029;-87
2023/01/14 00:13:39;;;;;;;0.20;0.10;;;;;;;;;;5019259;28;20045;-87
2023/01/14 00:16:12;;;;;;;0.20;0.10;;;;;;;;;;5020588;28;20102;-88
2023/01/14 00:18:38;;;;;;;0.95;0.75;;;;;;;;;;5039086;28;20045;-89
2023/01/14 00:21:10;;;;;;;3.03;0.93;;;;;;;;;;5023520;28;20049;-85
2023/01/14 00:23:36;;;;;;;0.20;0.10;;;;;;;;;;5026906;28;20045;-85
2023/01/14 00:26:09;;;;;;;0.20;0.10;;;;;;;;;;5028103;28;20041;-84
2023/01/14 00:28:39;;;;;;;0.20;0.10;;;;;;;;;;5036113;28;20166;-89
2023/01/14 00:31:08;;;;;;;0.20;0.10;;;;;;;;;;5032714;28;20447;-87
2023/01/14 00:33:35;;;;;;;0.20;0.10;;;;;;;;;;5029881;28;20045;-84
2023/01/14 00:36:04;;;;;;;0.20;0.10;;;;;;;;;;5018308;28;20401;-86
2023/01/14 00:38:39;;;;;;;0.20;0.10;;;;;;;;;;5018379;28;20488;-87
2023/01/14 00:41:10;;;;;;;0.38;0.38;;;;;;;;;;5014713;28;21871;-87
2023/01/14 00:43:40;;;;;;;0.20;0.10;;;;;;;;;;5037853;28;20037;-87
2023/01/14 00:46:09;;;;;;;0.20;0.10;;;;;;;;;;5021940;28;20171;-86
2023/01/14 00:48:39;;;;;;;0.20;0.10;;;;;;;;;;5037889;28;20128;-87
2023/01/14 00:51:05;;;;;;;0.20;0.10;;;;;;;;;;5019710;28;20044;-86
2023/01/14 00:53:31;;;;;;;0.20;0.10;;;;;;;;;;5016563;28;20076;-87
2023/01/14 00:55:58;;;;;;;0.20;0.10;;;;;;;;;;5038949;28;20045;-89
2023/01/14 00:58:27;;;;;;;0.20;0.10;;;;;;;;;;5038996;28;20042;-90
2023/01/14 01:00:54;;;;;;;0.20;0.10;;;;;;;;;;5016797;28;20131;-87
2023/01/14 01:03:22;;;;;;;0.20;0.10;;;;;;;;;;5018343;28;20065;-85
2023/01/14 01:05:54;;;;;;;0.20;0.10;;;;;;;;;;5018455;28;20049;-86
2023/01/14 01:08:26;;;;;;;0.20;0.10;;;;;;;;;;5033325;28;20091;-86
2023/01/14 01:11:13;;;;;;;0.20;0.10;;;;;;;;;;5030402;28;20049;-86
2023/01/14 01:13:39;;;;;;;0.20;0.10;;;;;;;;;;5012687;28;20044;-86
2023/01/14 01:16:09;;;;;;;0.20;0.10;;;;;;;;;;5026826;28;20530;-87
2023/01/14 01:18:42;;;;;;;0.20;0.10;;;;;;;;;;5037371;28;20044;-88
2023/01/14 01:21:11;;;;;;;0.20;0.10;;;;;;;;;;5018643;28;20050;-85
2023/01/14 01:23:40;;;;;;;0.20;0.10;;;;;;;;;;5049340;22;21193;-85
2023/01/14 01:26:15;;;;;;;0.20;0.10;;;;;;;;;;5016515;28;20138;-87
2023/01/14 01:28:41;;;;;;;0.20;0.10;;;;;;;;;;5017910;28;21712;-85
2023/01/14 01:31:09;;;;;;;0.20;0.10;;;;;;;;;;5032734;28;20578;-86
2023/01/14 01:33:38;;;;;;;0.20;0.10;;;;;;;;;;5031213;28;20041;-87
2023/01/14 01:36:06;;;;;;;0.20;0.10;;;;;;;;;;5019557;28;20503;-85
2023/01/14 01:38:32;;;;;;;0.20;0.10;;;;;;;;;;5048819;22;20110;-85
2023/01/14 01:40:59;;;;;;;0.20;0.10;;;;;;;;;;5037674;28;20037;-85
2023/01/14 01:43:27;;;;;;;0.20;0.10;;;;;;;;;;5032268;28;20108;-83
2023/01/14 01:45:53;;;;;;;0.20;0.10;;;;;;;;;;5016261;28;20699;-82
2023/01/14 01:48:28;;;;;;;0.20;0.10;;;;;;;;;;5050299;28;20033;-88
2023/01/14 01:51:07;;;;;;;0.20;0.10;;;;;;;;;;5028296;28;20025;-83
2023/01/14 01:53:35;;;;;;;0.20;0.10;;;;;;;;;;5052740;28;20036;-82
2023/01/14 01:56:02;;;;;;;0.20;0.10;;;;;;;;;;5039037;28;20589;-82
2023/01/14 01:58:28;;;;;;;0.20;0.20;;;;;;;;;;5042016;28;20407;-86
2023/01/14 02:00:54;;;;;;;0.20;0.10;;;;;;;;;;5041345;28;20496;-83
2023/01/14 02:03:23;;;;;;;0.20;0.10;;;;;;;;;;5025096;28;20556;-82
2023/01/14 02:05:50;;;;;;;0.20;0.20;;;;;;;;;;5055976;28;20034;-83
2023/01/14 02:08:16;;;;;;;0.20;0.10;;;;;;;;;;5044779;28;20578;-84
2023/01/14 02:10:49;;;;;;;0.20;0.10;;;;;;;;;;5041526;28;20410;-84
2023/01/14 02:13:24;;;;;;;0.20;0.10;;;;;;;;;;5036117;28;20084;-83
2023/01/14 02:15:56;;;;;;;0.20;0.10;;;;;;;;;;5038931;28;20029;-83
2023/01/14 02:18:46;;;;;;;0.20;0.10;;;;;;;;;;5038173;28;20041;-83
2023/01/14 02:21:12;;;;;;;0.20;0.10;;;;;;;;;;5038390;28;20033;-82
2023/01/14 02:23:47;;;;;;;0.20;0.10;;;;;;;;;;5039423;28;20132;-83
2023/01/14 02:26:19;;;;;;;3.50;0.85;;;;;;;;;;5019829;28;20578;-84
2023/01/14 02:29:03;;;;;;;0.20;0.10;;;;;;;;;;5040988;28;20036;-83
2023/01/14 02:31:34;;;;;;;0.40;0.40;;;;;;;;;;5040178;28;20032;-85
2023/01/14 02:34:04;;;;;;;0.20;0.10;;;;;;;;;;5028295;28;20426;-82
2023/01/14 02:36:34;;;;;;;0.20;0.10;;;;;;;;;;5041609;28;20120;-83
2023/01/14 02:39:12;;;;;;;0.20;0.10;;;;;;;;;;5023610;28;20074;-83
2023/01/14 02:44:28;;;;;;;0.20;0.10;;;;;;;;;;5038044;28;20171;-83
2023/01/14 02:46:55;;;;;;;0.20;0.10;;;;;;;;;;5049033;28;20043;-84
2023/01/14 02:49:24;;;;;;;0.20;0.10;;;;;;;;;;5034969;28;20088;-82
2023/01/14 02:51:50;;;;;;;0.20;0.10;;;;;;;;;;5036172;28;20675;-81
2023/01/14 02:54:19;;;;;;;0.20;0.10;;;;;;;;;;5027201;28;20037;-86
2023/01/14 02:56:46;;;;;;;0.20;0.10;;;;;;;;;;5032911;28;20114;-84
2023/01/14 02:59:19;;;;;;;0.20;0.10;;;;;;;;;;5034237;28;20037;-82
2023/01/14 03:01:52;;;;;;;0.20;0.10;;;;;;;;;;5039502;28;20048;-83
2023/01/14 03:04:37;;;;;;;0.20;0.10;;;;;;;;;;5043127;28;20549;-83
2023/01/14 03:07:27;;;;;;;0.20;0.10;;;;;;;;;;5023296;28;20389;-83
2023/01/14 03:09:56;;;;;;;0.20;0.10;;;;;;;;;;5019998;28;20049;-82
2023/01/14 03:13:00;;;;;;;3.67;0.90;;;;;;;;;;5031094;28;20037;-84
2023/01/14 03:15:33;;;;;;;0.20;0.10;;;;;;;;;;5005629;28;20044;-83
2023/01/14 03:18:08;;;;;;;1.73;0.47;;;;;;;;;;4970040;28;20045;-85
2023/01/14 03:20:37;;;;;;;0.20;0.10;;;;;;;;;;5014749;28;20136;-85
2023/01/14 03:23:05;;;;;;;0.20;0.10;;;;;;;;;;5024908;28;20055;-85
2023/01/14 03:25:33;;;;;;;0.20;0.10;;;;;;;;;;5034393;28;20495;-83
2023/01/14 03:28:00;;;;;;;0.28;0.15;;;;;;;;;;5042692;28;20439;-83
2023/01/14 03:30:33;;;;;;;0.20;0.10;;;;;;;;;;5021485;28;20069;-85
2023/01/14 03:33:01;;;;;;;0.20;0.10;;;;;;;;;;5014560;28;20048;-84
2023/01/14 03:35:30;;;;;;;0.20;0.10;;;;;;;;;;5044296;28;20048;-85
2023/01/14 03:38:02;;;;;;;0.20;0.10;;;;;;;;;;5047973;28;20091;-83
2023/01/14 03:40:30;;;;;;;0.20;0.10;;;;;;;;;;5062930;28;20403;-83
2023/01/14 03:43:00;;;;;;;0.20;0.10;;;;;;;;;;5030056;28;20495;-84
2023/01/14 03:45:35;;;;;;;0.20;0.10;;;;;;;;;;5049363;28;20041;-83
2023/01/14 03:48:02;;;;;;;0.20;0.10;;;;;;;;;;5035479;28;20115;-83
2023/01/14 03:50:33;;;;;;;0.20;0.10;;;;;;;;;;5026342;28;20142;-82
2023/01/14 03:53:05;;;;;;;0.20;0.10;;;;;;;;;;5018342;28;20388;-83
2023/01/14 03:55:34;;;;;;;0.20;0.10;;;;;;;;;;5040434;28;20044;-85
2023/01/14 03:58:06;;;;;;;0.20;0.10;;;;;;;;;;5037218;28;20409;-83
2023/01/14 04:00:45;;;;;;;0.20;0.10;;;;;;;;;;5039819;28;20143;-83
2023/01/14 04:03:12;;;;;;;0.20;0.10;;;;;;;;;;5055678;28;20385;-84
2023/01/14 04:05:39;;;;;;;0.20;0.10;;;;;;;;;;5026930;28;20045;-86
2023/01/14 04:08:06;;;;;;;0.20;0.10;;;;;;;;;;5059140;28;20045;-81
2023/01/14 04:10:32;;;;;;;0.20;0.10;;;;;;;;;;5045029;28;20087;-81
2023/01/14 04:15:43;;;;;;;0.20;0.13;;;;;;;;;;5045437;28;20132;-81
2023/01/14 04:18:09;;;;;;;0.20;0.10;;;;;;;;;;5044920;28;20473;-84
2023/01/14 04:20:35;;;;;;;0.20;0.00;;;;;;;;;;5047667;28;20095;-82
2023/01/14 04:23:01;;;;;;;0.20;0.10;;;;;;;;;;5044093;28;20044;-81
2023/01/14 04:25:27;;;;;;;0.20;0.10;;;;;;;;;;5017938;28;20439;-84
2023/01/14 04:27:53;;;;;;;0.20;0.10;;;;;;;;;;5044753;28;20045;-82
2023/01/14 04:30:19;;;;;;;0.20;0.10;;;;;;;;;;5040629;28;20041;-84
2023/01/14 04:32:46;;;;;;;0.20;0.10;;;;;;;;;;5036499;28;20041;-85
2023/01/14 04:35:12;;;;;;;0.20;0.10;;;;;;;;;;5037117;28;20041;-83
2023/01/14 04:37:38;;;;;;;0.20;0.10;;;;;;;;;;5043087;28;20337;-83
2023/01/14 04:40:04;;;;;;;0.20;0.10;;;;;;;;;;5037876;28;20060;-85
2023/01/14 04:42:31;;;;;;;0.20;0.10;;;;;;;;;;5038483;28;20099;-82
2023/01/14 04:45:01;;;;;;;0.20;0.10;;;;;;;;;;5040309;28;20040;-82
2023/01/14 04:47:28;;;;;;;0.20;0.10;;;;;;;;;;5038764;28;20056;-81
2023/01/14 04:49:54;;;;;;;0.20;0.10;;;;;;;;;;5024183;28;20514;-83
2023/01/14 04:52:20;;;;;;;0.20;0.20;;;;;;;;;;5059175;28;20059;-84
2023/01/14 04:54:46;;;;;;;0.20;0.10;;;;;;;;;;5046406;28;20041;-84
2023/01/14 04:57:12;;;;;;;0.20;0.10;;;;;;;;;;5041068;28;20794;-82
2023/01/14 04:59:38;;;;;;;0.20;0.10;;;;;;;;;;5041707;28;20040;-85
2023/01/14 05:02:04;;;;;;;0.20;0.10;;;;;;;;;;5023642;28;20049;-83
2023/01/14 05:04:30;;;;;;;0.20;0.10;;;;;;;;;;5023457;28;20045;-85
2023/01/14 05:06:57;;;;;;;0.20;0.10;;;;;;;;;;5021661;28;20308;-83
2023/01/14 05:09:23;;;;;;;0.40;0.40;;;;;;;;;;5019680;28;20033;-84
2023/01/14 05:11:49;;;;;;;0.20;0.10;;;;;;;;;;5035460;28;20129;-81
2023/01/14 05:14:15;;;;;;;0.20;0.10;;;;;;;;;;5037501;28;20045;-83
2023/01/14 05:16:41;;;;;;;0.20;0.10;;;;;;;;;;5029701;28;20388;-83
2023/01/14 05:19:07;;;;;;;0.20;0.10;;;;;;;;;;5038647;28;20036;-82
2023/01/14 05:21:33;;;;;;;0.63;0.63;;;;;;;;;;5045026;28;20049;-82
2023/01/14 05:23:59;;;;;;;0.20;0.10;;;;;;;;;;5027275;28;20514;-83
2023/01/14 05:26:25;;;;;;;0.95;0.55;;;;;;;;;;5047483;28;20048;-85
2023/01/14 05:28:51;;;;;;;6.07;0.55;;;;;;;;;;5039025;28;20487;-84
2023/01/14 05:31:17;;;;;;;0.20;0.10;;;;;;;;;;5039372;28;20071;-85
2023/01/14 05:33:43;;;;;;;0.20;0.10;;;;;;;;;;5040853;28;20028;-82
2023/01/14 05:36:10;;;;;;;0.20;0.10;;;;;;;;;;5039016;28;20041;-82
2023/01/14 05:38:36;;;;;;;0.20;0.13;;;;;;;;;;5038473;28;20048;-82
2023/01/14 05:41:02;;;;;;;0.20;0.10;;;;;;;;;;5027431;28;20339;-83
2023/01/14 05:46:16;;;;;;;0.20;0.10;;;;;;;;;;5043125;28;20041;-84
2023/01/14 05:48:43;;;;;;;0.20;0.10;;;;;;;;;;5056088;28;20411;-85
2023/01/14 05:51:11;;;;;;;0.20;0.10;;;;;;;;;;5040540;28;20045;-81
2023/01/14 05:53:37;;;;;;;0.20;0.10;;;;;;;;;;5042987;28;20037;-83
2023/01/14 05:56:03;;;;;;;4.68;0.35;;;;;;;;;;5039874;28;20045;-87
2023/01/14 05:58:29;;;;;;;0.20;0.10;;;;;;;;;;5028972;28;20036;-84
2023/01/14 06:06:35;;;;;;;0.20;0.10;;;;;;;;;;5041778;28;20041;-84
2023/01/14 06:09:11;;;;;;;0.20;0.10;;;;;;;;;;5024224;28;20041;-82
2023/01/14 06:12:01;;;;;;;0.20;0.10;;;;;;;;;;5036363;28;20041;-84
2023/01/14 06:14:29;;;;;;;0.20;0.10;;;;;;;;;;5025290;28;20132;-83
2023/01/14 06:16:56;;;;;;;0.20;0.10;;;;;;;;;;5038233;28;20040;-85
2023/01/14 06:19:22;;;;;;;0.63;0.63;;;;;;;;;;5034625;28;20052;-82
2023/01/14 06:21:48;;;;;;;0.20;0.10;;;;;;;;;;5032947;28;20045;-82
2023/01/14 06:24:14;;;;;;;0.20;0.10;;;;;;;;;;5024236;28;20044;-84
2023/01/14 06:26:40;;;;;;;0.20;0.10;;;;;;;;;;5037985;28;20411;-83
2023/01/14 06:29:08;;;;;;;0.22;0.15;;;;;;;;;;5027351;28;21087;-85
2023/01/14 06:31:34;;;;;;;0.20;0.10;;;;;;;;;;5040203;28;20086;-83
2023/01/14 06:34:01;;;;;;;0.20;0.10;;;;;;;;;;5032323;28;20107;-82
2023/01/14 06:36:28;;;;;;;0.20;0.10;;;;;;;;;;5036984;28;20045;-83
2023/01/14 06:38:54;;;;;;;4.72;1.25;;;;;;;;;;5014764;28;20040;-84
2023/01/14 06:41:20;;;;;;;0.20;0.10;;;;;;;;;;5039456;28;20056;-80
2023/01/14 06:43:46;;;;;;;0.30;0.22;;;;;;;;;;5037765;28;20045;-81
2023/01/14 06:46:13;;;;;;;0.20;0.10;;;;;;;;;;5039591;28;20094;-83
2023/01/14 06:48:40;;;;;;;0.20;0.10;;;;;;;;;;5023535;28;20052;-83
2023/01/14 06:51:07;;;;;;;0.20;0.10;;;;;;;;;;5027547;28;20040;-84
2023/01/14 06:53:33;;;;;;;0.20;0.10;;;;;;;;;;5027663;28;20040;-83
2023/01/14 06:56:04;;;;;;;0.20;0.10;;;;;;;;;;5035038;28;20041;-82
2023/01/14 06:58:30;;;;;;;0.20;0.10;;;;;;;;;;5041236;28;20082;-83
2023/01/14 07:00:56;;;;;;;0.20;0.10;;;;;;;;;;5036249;28;20048;-85
2023/01/14 07:03:22;;;;;;;0.20;0.10;;;;;;;;;;5017669;28;20760;-85
2023/01/14 07:05:48;;;;;;;0.20;0.10;;;;;;;;;;5038155;28;20415;-84
2023/01/14 07:08:14;;;;;;;0.20;0.20;;;;;;;;;;5038487;28;20041;-83
2023/01/14 07:10:40;;;;;;;0.20;0.10;;;;;;;;;;5032189;28;20049;-83
2023/01/14 07:13:06;;;;;;;0.20;0.10;;;;;;;;;;5039989;28;20096;-82
2023/01/14 07:15:32;;;;;;;0.20;0.10;;;;;;;;;;5020399;28;20044;-84
2023/01/14 07:17:58;;;;;;;0.20;0.10;;;;;;;;;;5027027;28;20033;-83
2023/01/14 07:20:24;;;;;;;0.20;0.10;;;;;;;;;;5038043;28;20048;-83
2023/01/14 07:22:50;;;;;;;0.20;0.10;;;;;;;;;;5022827;28;20035;-84
2023/01/14 07:25:17;;;;;;;0.20;0.10;;;;;;;;;;5019312;28;20032;-85
2023/01/14 07:27:43;;;;;;;0.20;0.10;;;;;;;;;;5031204;28;20776;-81
2023/01/14 07:30:09;;;;;;;0.20;0.10;;;;;;;;;;5037306;28;20037;-83
2023/01/14 07:32:35;;;;;;;0.20;0.10;;;;;;;;;;5019999;28;20037;-85
2023/01/14 07:35:01;;;;;;;0.20;0.10;;;;;;;;;;5040497;28;20120;-83
2023/01/14 07:40:05;;;;;;;0.20;0.10;;;;;;;;;;5032716;28;20053;-84
2023/01/14 07:42:36;;;;;;;0.20;0.10;;;;;;;;;;5017010;28;20061;-86
2023/01/14 07:45:02;;;;;;;0.20;0.17;;;;;;;;;;5027220;28;20393;-86
2023/01/14 07:47:31;;;;;;;0.20;0.20;;;;;;;;;;5015648;28;20378;-87
2023/01/14 07:49:57;;;;;;;0.20;0.10;;;;;;;;;;5022657;28;20037;-86
2023/01/14 07:52:23;;;;;;;0.20;0.10;;;;;;;;;;5010232;28;20057;-83
2023/01/14 07:54:49;;;;;;;0.20;0.10;;;;;;;;;;4999235;28;20049;-87
2023/01/14 07:57:18;;;;;;;0.20;0.10;;;;;;;;;;5010081;28;20041;-86
2023/01/14 07:59:44;;;;;;;0.20;0.10;;;;;;;;;;4993267;28;20037;-87
2023/01/14 08:02:11;;;;;;;0.20;0.20;;;;;;;;;;4998047;28;20052;-84
2023/01/14 08:04:37;;;;;;;5.05;0.30;;;;;;;;;;5011859;28;20163;-87
2023/01/14 08:07:07;;;;;;;0.20;0.10;;;;;;;;;;5004344;28;20041;-87
2023/01/14 08:09:33;;;;;;;0.20;0.10;;;;;;;;;;5015171;28;20515;-85
2023/01/14 08:12:02;;;;;;;0.20;0.15;;;;;;;;;;5015777;28;20048;-86
2023/01/14 08:14:28;;;;;;;0.20;0.10;;;;;;;;;;5013640;28;20041;-85
2023/01/14 08:17:04;;;;;;;0.47;0.47;;;;;;;;;;5025631;28;20048;-88
2023/01/14 08:19:30;;;;;;;0.20;0.20;;;;;;;;;;5017921;28;20119;-89
2023/01/14 08:21:56;;;;;;;0.20;0.10;;;;;;;;;;5016173;28;20044;-87
2023/01/14 08:24:22;;;;;;;0.20;0.10;;;;;;;;;;5016883;28;20037;-85
2023/01/14 08:26:53;;;;;;;0.20;0.10;;;;;;;;;;5007664;28;20051;-86
2023/01/14 08:29:21;;;;;;;0.20;0.10;;;;;;;;;;5010951;28;20048;-87
2023/01/14 08:31:57;;;;;;;0.20;0.10;;;;;;;;;;5007165;28;20032;-86
2023/01/14 08:34:33;;;;;;;0.20;0.10;;;;;;;;;;5003996;28;20096;-85
2023/01/14 08:36:59;;;;;;;0.20;0.10;;;;;;;;;;5004124;28;20040;-91
2023/01/14 08:39:28;;;;;;;0.20;0.10;;;;;;;;;;5034892;28;20392;-89
2023/01/14 08:42:00;;;;;;;0.20;0.10;;;;;;;;;;5017214;28;20580;-87
2023/01/14 08:44:26;;;;;;;0.20;0.10;;;;;;;;;;5015354;28;20078;-86
2023/01/14 08:46:52;;;;;;;0.20;0.10;;;;;;;;;;5006920;28;20384;-87
2023/01/14 08:49:24;;;;;;;0.20;0.10;;;;;;;;;;5004074;28;20045;-87
2023/01/14 08:51:55;;;;;;;0.20;0.10;;;;;;;;;;5014009;28;20072;-85
2023/01/14 08:54:22;;;;;;;0.20;0.10;;;;;;;;;;4997724;28;20672;-88
2023/01/14 08:56:48;;;;;;;0.20;0.10;;;;;;;;;;4995178;28;20340;-85
2023/01/14 08:59:14;;;;;;;0.20;0.10;;;;;;;;;;4995942;28;20491;-88
2023/01/14 09:01:43;;;;;;;0.20;0.10;;;;;;;;;;5001856;28;20041;-87
2023/01/14 09:04:10;;;;;;;0.20;0.10;;;;;;;;;;5012956;28;20124;-89
2023/01/14 09:17:04;;;;;;;0.20;0.10;;;;;;;;;;5016675;28;20515;-88
2023/01/14 09:17:43;;;;;;;0.20;0.10;;;;;;;;;;5015673;28;20797;-87
2023/01/14 09:20:21;;;;;;;0.20;0.10;;;;;;;;;;5004461;28;20239;-87
2023/01/14 09:22:48;;;;;;;0.20;0.10;;;;;;;;;;5023554;28;20491;-87
2023/01/14 09:25:23;;;;;;;0.20;0.10;;;;;;;;;;5009857;28;20381;-87
2023/01/14 09:27:49;;;;;;;0.20;0.10;;;;;;;;;;5012433;28;20049;-87
2023/01/14 09:30:18;;;;;;;0.20;0.10;;;;;;;;;;5021482;28;20037;-88
2023/01/14 09:32:44;;;;;;;0.20;0.10;;;;;;;;;;5018778;28;20045;-86
2023/01/14 09:35:16;;;;;;;0.20;0.10;;;;;;;;;;5012642;28;20049;-90
2023/01/14 09:37:42;;;;;;;0.20;0.10;;;;;;;;;;5021914;28;20036;-86
2023/01/14 09:40:12;;;;;;;0.20;0.10;;;;;;;;;;5003228;28;20049;-89
2023/01/14 09:42:46;;;;;;;0.20;0.10;;;;;;;;;;5017490;28;20037;-89
2023/01/14 09:45:33;;;;;;;0.35;0.17;;;;;;;;;;5001481;28;20034;-86
2023/01/14 09:48:14;;;;;;;0.20;0.10;;;;;;;;;;5000459;28;20053;-87
2023/01/14 09:50:50;;;;;;;0.20;0.10;;;;;;;;;;5015799;28;20038;-90
2023/01/14 09:53:25;;;;;;;0.20;0.10;;;;;;;;;;5016093;28;20087;-89
2023/01/14 09:56:13;;;;;;;0.20;0.10;;;;;;;;;;5035473;28;20212;-87
2023/01/14 09:58:42;;;;;;;0.20;0.10;;;;;;;;;;5000432;28;20044;-86
2023/01/14 10:01:27;;;;;;;0.22;0.15;;;;;;;;;;5014174;28;20056;-87
2023/01/14 10:04:14;;;;;;;0.20;0.10;;;;;;;;;;5006177;28;20488;-87
2023/01/14 10:06:44;;;;;;;0.20;0.10;;;;;;;;;;5009050;28;20326;-91
2023/01/14 10:09:40;;;;;;;0.20;0.10;;;;;;;;;;5031378;28;20041;-87
2023/01/14 10:12:08;;;;;;;0.22;0.13;;;;;;;;;;5000031;28;20339;-88
2023/01/14 10:14:55;;;;;;;0.20;0.10;;;;;;;;;;5000779;28;20511;-87
2023/01/14 10:17:23;;;;;;;0.20;0.10;;;;;;;;;;5010736;28;20044;-85
2023/01/14 10:19:55;;;;;;;0.20;0.10;;;;;;;;;;5020213;28;20451;-89
2023/01/14 10:22:43;;;;;;;0.20;0.10;;;;;;;;;;4999318;28;20040;-87
2023/01/14 10:25:17;;;;;;;0.20;0.10;;;;;;;;;;5022438;28;20047;-89
2023/01/14 10:27:45;;;;;;;0.20;0.10;;;;;;;;;;5006833;28;20045;-87
2023/01/14 10:30:38;;;;;;;0.20;0.10;;;;;;;;;;5008452;28;20025;-85
2023/01/14 10:33:07;;;;;;;0.20;0.10;;;;;;;;;;4987882;28;20033;-86
2023/01/14 10:35:40;;;;;;;0.20;0.10;;;;;;;;;;5015352;28;20399;-89
2023/01/14 10:38:18;;;;;;;0.20;0.10;;;;;;;;;;5011123;28;20771;-87
2023/01/14 10:40:53;;;;;;;0.20;0.10;;;;;;;;;;5013663;28;20146;-87
2023/01/14 10:43:28;;;;;;;0.20;0.10;;;;;;;;;;5033571;28;20116;-88
2023/01/14 10:45:55;;;;;;;0.20;0.10;;;;;;;;;;5018824;28;20434;-88
2023/01/14 10:48:25;;;;;;;0.20;0.10;;;;;;;;;;5012471;28;20029;-83
2023/01/14 10:50:54;;;;;;;0.20;0.10;;;;;;;;;;5030153;28;20040;-88
2023/01/14 10:53:27;;;;;;;0.20;0.10;;;;;;;;;;5013865;28;20033;-88
2023/01/14 10:56:03;;;;;;;0.20;0.10;;;;;;;;;;5014267;28;20728;-85
2023/01/14 10:58:53;;;;;;;0.20;0.20;;;;;;;;;;4996028;28;20037;-87
2023/01/14 11:01:20;;;;;;;0.20;0.10;;;;;;;;;;5003496;28;20136;-88
2023/01/14 11:03:49;;;;;;;0.20;0.10;;;;;;;;;;5014865;28;20041;-86
2023/01/14 11:06:18;;;;;;;0.20;0.10;;;;;;;;;;5017879;28;20093;-88
2023/01/14 11:08:47;;;;;;;0.20;0.10;;;;;;;;;;5025437;28;20068;-87
2023/01/14 11:11:40;;;;;;;0.20;0.10;;;;;;;;;;5010471;28;20033;-88
2023/01/14 11:14:24;;;;;;;0.20;0.10;;;;;;;;;;5022942;28;20044;-88
2023/01/14 11:16:51;;;;;;;0.20;0.10;;;;;;;;;;5021877;28;20081;-88
2023/01/14 11:19:27;;;;;;;0.20;0.10;;;;;;;;;;5023086;28;20063;-90
2023/01/14 11:21:58;;;;;;;0.20;0.10;;;;;;;;;;5024238;28;20037;-88
2023/01/14 11:24:38;;;;;;;0.20;0.10;;;;;;;;;;5029619;28;20455;-90
2023/01/14 11:27:13;;;;;;;0.20;0.10;;;;;;;;;;5036390;28;20037;-89
2023/01/14 11:30:08;;;;;;;;;;;;;;;;;;;;;
2023/01/14 11:32:36;;;;;;;0.20;0.10;;;;;;;;;;5039299;28;20037;-86
2023/01/14 11:35:03;;;;;;;0.20;0.10;;;;;;;;;;5039134;28;20044;-87
2023/01/14 11:37:53;;;;;;;0.20;0.10;;;;;;;;;;5024226;28;20040;-90
2023/01/14 11:40:23;;;;;;;0.20;0.10;;;;;;;;;;5014438;28;20044;-88
2023/01/14 11:43:00;;;;;;;0.20;0.10;;;;;;;;;;5011600;28;20044;-88
2023/01/14 11:45:28;;;;;;;0.20;0.10;;;;;;;;;;5032023;28;20124;-88
2023/01/14 11:48:02;;;;;;;0.20;0.10;;;;;;;;;;5021388;28;20051;-89
2023/01/14 11:50:29;;;;;;;0.20;0.15;;;;;;;;;;5006708;28;20048;-87
2023/01/14 11:53:04;;;;;;;0.20;0.10;;;;;;;;;;5023633;28;20542;-90
2023/01/14 11:55:39;;;;;;;0.20;0.10;;;;;;;;;;5025855;28;20049;-89
2023/01/14 11:58:35;;;;;;;0.20;0.10;;;;;;;;;;5009580;28;20040;-90
2023/01/14 12:01:05;;;;;;;0.20;0.10;;;;;;;;;;4989425;28;20887;-87
2023/01/14 12:03:57;;;;;;;0.20;0.10;;;;;;;;;;5011370;28;20045;-88
2023/01/14 12:06:36;;;;;;;0.20;0.10;;;;;;;;;;5042826;28;20037;-89
2023/01/14 12:09:23;;;;;;;0.20;0.10;;;;;;;;;;5011112;28;20075;-89
2023/01/14 12:12:13;;;;;;;0.20;0.10;;;;;;;;;;5043098;28;20106;-85
2023/01/14 12:17:37;;;;;;;0.20;0.10;;;;;;;;;;5026023;28;20048;-88
2023/01/14 12:20:24;;;;;;;0.20;0.10;;;;;;;;;;5038297;28;20047;-86
2023/01/14 12:23:15;;;;;;;0.20;0.10;;;;;;;;;;5023162;28;20112;-89
2023/01/14 12:25:43;;;;;;;0.20;0.10;;;;;;;;;;5026398;28;20037;-86
2023/01/14 12:28:12;;;;;;;0.20;0.10;;;;;;;;;;5044093;28;20043;-88
2023/01/14 12:30:39;;;;;;;0.20;0.10;;;;;;;;;;5031683;28;20036;-86
2023/01/14 12:33:11;;;;;;;0.20;0.10;;;;;;;;;;5020497;28;20170;-88
2023/01/14 12:35:56;;;;;;;0.20;0.10;;;;;;;;;;5026990;28;20076;-88
2023/01/14 12:47:10;;;;;;;0.20;0.10;;;;;;;;;;5043212;28;20046;-88
2023/01/14 12:49:39;;;;;;;0.20;0.10;;;;;;;;;;5048003;28;20029;-88
2023/01/14 12:52:08;;;;;;;0.20;0.10;;;;;;;;;;5008876;28;20041;-87
2023/01/14 12:54:39;;;;;;;0.20;0.10;;;;;;;;;;5008956;28;20577;-90
2023/01/14 12:57:21;;;;;;;0.20;0.10;;;;;;;;;;5009681;28;20419;-87
2023/01/14 12:59:53;;;;;;;0.20;0.10;;;;;;;;;;5009853;28;20064;-89
2023/01/14 13:02:34;;;;;;;0.20;0.10;;;;;;;;;;5003327;28;20037;-88
2023/01/14 13:05:16;;;;;;;0.20;0.10;;;;;;;;;;5023793;28;20069;-88
2023/01/14 13:07:50;;;;;;;0.20;0.10;;;;;;;;;;5045450;28;20513;-88
2023/01/14 13:10:29;;;;;;;0.20;0.10;;;;;;;;;;5005397;28;20042;-89
2023/01/14 13:12:55;;;;;;;0.20;0.10;;;;;;;;;;5005465;28;20384;-89
2023/01/14 13:15:35;;;;;;;0.20;0.10;;;;;;;;;;5041722;28;20064;-88
2023/01/14 13:18:17;;;;;;;0.20;0.10;;;;;;;;;;5023743;28;20041;-88
2023/01/14 13:20:48;;;;;;;0.20;0.10;;;;;;;;;;5012205;28;20057;-89
2023/01/14 13:23:34;;;;;;;0.20;0.10;;;;;;;;;;5022329;28;20041;-89
2023/01/14 13:26:06;;;;;;;0.20;0.10;;;;;;;;;;5015654;28;20103;-91
2023/01/14 13:28:34;;;;;;;0.20;0.10;;;;;;;;;;5024485;28;20607;-89
2023/01/14 13:31:31;;;;;;;0.20;0.10;;;;;;;;;;5031759;28;20292;-88
2023/01/14 13:34:28;;;;;;;0.20;0.10;;;;;;;;;;5033969;28;20041;-90
2023/01/14 13:37:03;;;;;;;0.20;0.10;;;;;;;;;;5008668;28;20033;-86
2023/01/14 13:39:30;;;;;;;0.20;0.10;;;;;;;;;;5038175;23;20045;-85
2023/01/14 13:41:57;;;;;;;0.20;0.10;;;;;;;;;;5026121;28;20029;-85
2023/01/14 13:44:29;;;;;;;0.30;0.30;;;;;;;;;;5007169;28;20041;-81
2023/01/14 13:46:57;;;;;;;0.63;0.63;;;;;;;;;;5020206;28;20052;-84
2023/01/14 13:49:33;;;;;;;0.20;0.10;;;;;;;;;;5021469;28;20520;-81
2023/01/14 13:52:12;;;;;;;0.20;0.10;;;;;;;;;;5025998;28;20091;-83
2023/01/14 13:54:38;;;;;;;0.20;0.10;;;;;;;;;;5022873;28;20052;-83
2023/01/14 13:57:11;;;;;;;0.20;0.10;;;;;;;;;;5007793;28;20041;-80
2023/01/14 13:59:38;;;;;;;0.20;0.10;;;;;;;;;;5020957;28;20052;-83
2023/01/14 14:02:23;;;;;;;0.20;0.10;;;;;;;;;;5039464;28;20044;-82
2023/01/14 14:05:12;;;;;;;0.20;0.10;;;;;;;;;;5020115;28;20037;-84
2023/01/14 14:08:01;;;;;;;0.20;0.10;;;;;;;;;;5029972;28;20118;-84
2023/01/14 14:10:27;;;;;;;0.20;0.10;;;;;;;;;;5013625;28;20041;-82
2023/01/14 14:15:45;;;;;;;0.20;0.10;;;;;;;;;;5024183;28;20048;-83
2023/01/14 14:18:20;;;;;;;0.20;0.10;;;;;;;;;;4996889;28;20044;-83
2023/01/14 14:20:46;;;;;;;0.20;0.10;;;;;;;;;;5014485;28;20037;-82
2023/01/14 14:23:19;;;;;;;0.20;0.10;;;;;;;;;;5017838;28;20090;-86
2023/01/14 14:25:45;;;;;;;0.20;0.10;;;;;;;;;;5032790;28;20528;-82
2023/01/14 14:28:23;;;;;;;0.20;0.10;;;;;;;;;;5005105;28;20092;-83
2023/01/14 14:31:01;;;;;;;0.20;0.10;;;;;;;;;;5002702;28;20069;-83
2023/01/14 14:33:40;;;;;;;0.20;0.10;;;;;;;;;;5017343;28;20512;-83
2023/01/14 14:36:15;;;;;;;0.20;0.10;;;;;;;;;;5032579;28;20540;-82
2023/01/14 14:38:44;;;;;;;0.20;0.10;;;;;;;;;;5013927;28;20040;-84
2023/01/14 14:41:15;;;;;;;0.20;0.10;;;;;;;;;;5016053;28;20091;-86
2023/01/14 14:43:43;;;;;;;0.20;0.10;;;;;;;;;;5018335;28;20499;-84
2023/01/14 14:46:10;;;;;;;0.20;0.10;;;;;;;;;;4996086;28;20064;-82
2023/01/14 14:48:40;;;;;;;0.20;0.10;;;;;;;;;;5031930;28;20046;-81
2023/01/14 14:51:17;;;;;;;0.20;0.10;;;;;;;;;;5016128;28;20124;-82
2023/01/14 14:53:45;;;;;;;0.20;0.10;;;;;;;;;;5004064;28;20049;-83
2023/01/14 14:56:15;;;;;;;0.20;0.10;;;;;;;;;;5011830;28;20211;-84
2023/01/14 14:58:43;;;;;;;0.20;0.10;;;;;;;;;;5016910;28;20041;-82
2023/01/14 15:01:09;;;;;;;0.20;0.10;;;;;;;;;;5013698;28;20095;-83
2023/01/14 15:03:37;;;;;;;0.20;0.10;;;;;;;;;;5034958;28;20586;-84
2023/01/14 15:06:07;;;;;;;0.20;0.10;;;;;;;;;;5027821;28;20037;-82
2023/01/14 15:08:34;;;;;;;0.20;0.10;;;;;;;;;;5005478;28;20037;-85
2023/01/14 15:11:03;;;;;;;0.20;0.10;;;;;;;;;;5034339;28;20998;-83
2023/01/14 15:13:34;;;;;;;0.20;0.10;;;;;;;;;;5008448;28;20072;-83
2023/01/14 15:16:03;;;;;;;0.20;0.10;;;;;;;;;;5038852;28;20447;-84
2023/01/14 15:18:38;;;;;;;0.20;0.10;;;;;;;;;;5014887;28;20044;-84
2023/01/14 15:21:05;;;;;;;0.20;0.20;;;;;;;;;;5008955;28;20372;-83
2023/01/14 15:23:33;;;;;;;0.20;0.10;;;;;;;;;;5016061;28;20059;-83
2023/01/14 15:26:00;;;;;;;0.20;0.10;;;;;;;;;;5018895;28;20045;-85
2023/01/14 15:28:28;;;;;;;0.20;0.10;;;;;;;;;;5005553;28;20030;-83
2023/01/14 15:30:56;;;;;;;0.20;0.10;;;;;;;;;;5000764;28;20035;-83
2023/01/14 15:33:26;;;;;;;0.20;0.10;;;;;;;;;;5033036;28;20120;-83
2023/01/14 15:35:58;;;;;;;0.20;0.10;;;;;;;;;;5036666;28;20051;-83
2023/01/14 15:38:25;;;;;;;0.20;0.10;;;;;;;;;;5031441;28;20037;-82
2023/01/14 15:40:52;;;;;;;0.20;0.10;;;;;;;;;;5033634;28;20045;-84
2023/01/14 15:43:27;;;;;;;0.20;0.10;;;;;;;;;;5010137;28;20045;-85
2023/01/14 15:45:55;;;;;;;0.20;0.10;;;;;;;;;;5035390;28;20064;-85